Latest Weather Observations for Spitfire Channel

IDQ60801

Issued at 2:32 am EST Saturday 7 May 2016 (issued every 30 minutes, with the page automatically refreshed every 10 minutes)

About weather observations | Map of weather stations | Latest weather observations for QLD | Other Formats
Station Details ID: 040927 Name: SPITFIRE CHANNEL BEACON Lat: -27.05 Lon: 153.27 Height: 7.0 m
Data from the previous 72 hours. | See also: Recent months for locations in Queensland
Date/Time
EST
Temp
°C
App
Temp
°C
Dew
Point
Rel
Hum
%
Delta-T
°C
Wind Press
QNH
hPa
Press
MSL
hPa
Rain
since 9 am
mm
Dir
 
Spd
km/h
Gust
km/h
Spd
kts
Gust
kts
07/02:30am - - - - - ESE 7 7 4 4 - - -
07/02:00am - - - - - ESE 6 6 3 3 - - -
07/01:30am - - - - - ESE 4 7 2 4 - - -
07/01:00am - - - - - ESE 4 6 2 3 - - -
07/12:30am - - - - - E 7 11 4 6 - - -
07/12:00am - - - - - E 9 11 5 6 - - -
 
Date/Time
EST
Temp
°C
App
Temp
°C
Dew
Point
Rel
Hum
%
Delta-T
°C
Wind Press
QNH
hPa
Press
MSL
hPa
Rain
since 9 am
mm
Dir
 
Spd
km/h
Gust
km/h
Spd
kts
Gust
kts
06/11:30pm - - - - - ENE 11 13 6 7 - - -
06/11:00pm - - - - - ENE 9 13 5 7 - - -
06/10:30pm - - - - - ENE 9 11 5 6 - - -
06/10:00pm - - - - - ENE 9 11 5 6 - - -
06/09:30pm - - - - - E 11 13 6 7 - - -
06/09:00pm - - - - - ENE 11 13 6 7 - - -
06/08:30pm - - - - - E 11 13 6 7 - - -
06/08:00pm - - - - - ENE 13 15 7 8 - - -
06/07:30pm - - - - - ENE 13 15 7 8 - - -
06/07:00pm - - - - - ENE 11 15 6 8 - - -
06/06:30pm - - - - - ENE 11 13 6 7 - - -
06/06:00pm - - - - - E 11 13 6 7 - - -
06/05:30pm - - - - - E 11 13 6 7 - - -
06/05:00pm - - - - - ENE 15 17 8 9 - - -
06/04:30pm - - - - - E 11 13 6 7 - - -
06/04:00pm - - - - - E 9 11 5 6 - - -
06/03:30pm - - - - - NE 9 13 5 7 - - -
06/03:00pm - - - - - NE 7 9 4 5 - - -
06/02:30pm - - - - - SSE 11 13 6 7 - - -
06/02:00pm - - - - - SSE 11 15 6 8 - - -
06/01:30pm - - - - - SSE 9 11 5 6 - - -
06/01:00pm - - - - - S 9 11 5 6 - - -
06/12:30pm - - - - - S 11 13 6 7 - - -
06/12:00pm - - - - - S 11 13 6 7 - - -
06/11:30am - - - - - S 13 15 7 8 - - -
06/11:00am - - - - - S 13 15 7 8 - - -
06/10:30am - - - - - S 13 17 7 9 - - -
06/10:00am - - - - - S 15 19 8 10 - - -
06/09:30am - - - - - S 15 17 8 9 - - -
06/09:00am - - - - - S 17 20 9 11 - - -
06/08:30am - - - - - S 19 22 10 12 - - -
06/08:00am - - - - - S 19 20 10 11 - - -
06/07:30am - - - - - S 19 22 10 12 - - -
06/07:00am - - - - - S 20 22 11 12 - - -
06/06:30am - - - - - S 19 20 10 11 - - -
06/06:00am - - - - - S 19 24 10 13 - - -
06/05:30am - - - - - S 17 20 9 11 - - -
06/05:00am - - - - - S 13 17 7 9 - - -
06/04:30am - - - - - S 15 19 8 10 - - -
06/04:00am - - - - - S 15 19 8 10 - - -
06/03:30am - - - - - S 17 19 9 10 - - -
06/03:00am - - - - - S 19 20 10 11 - - -
06/02:30am - - - - - S 17 20 9 11 - - -
06/02:00am - - - - - SSW 17 19 9 10 - - -
06/01:30am - - - - - S 15 15 8 8 - - -
06/01:00am - - - - - SSW 13 13 7 7 - - -
06/12:30am - - - - - SSE 6 6 3 3 - - -
06/12:00am - - - - - SE 6 7 3 4 - - -
 
Date/Time
EST
Temp
°C
App
Temp
°C
Dew
Point
Rel
Hum
%
Delta-T
°C
Wind Press
QNH
hPa
Press
MSL
hPa
Rain
since 9 am
mm
Dir
 
Spd
km/h
Gust
km/h
Spd
kts
Gust
kts
05/11:30pm - - - - - SE 7 7 4 4 - - -
05/11:00pm - - - - - ESE 6 6 3 3 - - -
05/10:30pm - - - - - ESE 7 9 4 5 - - -
05/10:00pm - - - - - ESE 7 11 4 6 - - -
05/09:30pm - - - - - ESE 9 9 5 5 - - -
05/09:00pm - - - - - ESE 9 11 5 6 - - -
05/08:30pm - - - - - E 9 11 5 6 - - -
05/08:00pm - - - - - E 11 13 6 7 - - -
05/07:30pm - - - - - E 11 13 6 7 - - -
05/07:00pm - - - - - ESE 13 15 7 8 - - -
05/06:30pm - - - - - ESE 13 15 7 8 - - -
05/06:00pm - - - - - ESE 13 17 7 9 - - -
05/05:30pm - - - - - E 15 17 8 9 - - -
05/05:00pm - - - - - ESE 15 19 8 10 - - -
05/04:30pm - - - - - E 15 19 8 10 - - -
05/04:00pm - - - - - ESE 15 17 8 9 - - -
05/03:30pm - - - - - SE 15 19 8 10 - - -
05/03:00pm - - - - - ESE 15 19 8 10 - - -
05/02:30pm - - - - - ESE 17 20 9 11 - - -
05/02:00pm - - - - - SE 17 19 9 10 - - -
05/01:30pm - - - - - SE 15 19 8 10 - - -
05/01:00pm - - - - - SSE 15 17 8 9 - - -
05/12:30pm - - - - - SSE 15 19 8 10 - - -
05/12:00pm - - - - - SSE 17 20 9 11 - - -
05/11:30am - - - - - S 17 19 9 10 - - -
05/11:00am - - - - - S 19 20 10 11 - - -
05/10:30am - - - - - S 17 20 9 11 - - -
05/10:00am - - - - - S 19 20 10 11 - - -
05/09:30am - - - - - S 17 20 9 11 - - -
05/09:00am - - - - - S 17 20 9 11 - - -
05/08:30am - - - - - S 17 20 9 11 - - -
05/08:00am - - - - - S 17 20 9 11 - - -
05/07:30am - - - - - S 19 22 10 12 - - -
05/07:00am - - - - - S 19 22 10 12 - - -
05/06:30am - - - - - S 19 20 10 11 - - -
05/06:00am - - - - - S 20 24 11 13 - - -
05/05:30am - - - - - S 22 26 12 14 - - -
05/05:00am - - - - - S 20 24 11 13 - - -
05/04:30am - - - - - S 20 24 11 13 - - -
05/04:00am - - - - - S 22 24 12 13 - - -
05/03:30am - - - - - S 19 20 10 11 - - -
05/03:00am - - - - - S 17 19 9 10 - - -
05/02:30am - - - - - S 15 19 8 10 - - -
05/02:00am - - - - - SSW 17 20 9 11 - - -
05/01:30am - - - - - S 15 19 8 10 - - -
05/01:00am - - - - - SSW 15 19 8 10 - - -
05/12:30am - - - - - SSW 17 19 9 10 - - -
05/12:00am - - - - - SW 13 19 7 10 - - -
 
Date/Time
EST
Temp
°C
App
Temp
°C
Dew
Point
Rel
Hum
%
Delta-T
°C
Wind Press
QNH
hPa
Press
MSL
hPa
Rain
since 9 am
mm
Dir
 
Spd
km/h
Gust
km/h
Spd
kts
Gust
kts
04/11:30pm - - - - - SW 11 13 6 7 - - -
04/11:00pm - - - - - WSW 9 9 5 5 - - -
04/10:30pm - - - - - SSE 6 7 3 4 - - -
04/10:00pm - - - - - SE 7 9 4 5 - - -
04/09:30pm - - - - - SE 7 9 4 5 - - -
04/09:00pm - - - - - ESE 9 13 5 7 - - -
04/08:30pm - - - - - ESE 9 15 5 8 - - -
04/08:00pm - - - - - E 13 15 7 8 - - -
04/07:30pm - - - - - E 15 19 8 10 - - -
04/07:00pm - - - - - E 17 20 9 11 - - -
04/06:30pm - - - - - E 19 22 10 12 - - -
04/06:00pm - - - - - E 22 28 12 15 - - -
04/05:30pm - - - - - E 20 28 11 15 - - -
04/05:00pm - - - - - E 20 26 11 14 - - -
04/04:30pm - - - - - E 24 28 13 15 - - -
04/04:00pm - - - - - ESE 20 24 11 13 - - -
04/03:30pm - - - - - ESE 19 24 10 13 - - -
04/03:00pm - - - - - ESE 17 20 9 11 - - -
04/02:30pm - - - - - ESE 19 20 10 11 - - -
04/02:00pm - - - - - SE 17 19 9 10 - - -
04/01:30pm - - - - - ESE 15 19 8 10 - - -
04/01:00pm - - - - - ESE 19 22 10 12 - - -
04/12:30pm - - - - - SSE 15 17 8 9 - - -
04/12:00pm - - - - - SSE 15 19 8 10 - - -
04/11:30am - - - - - S 19 20 10 11 - - -
04/11:00am - - - - - S 19 20 10 11 - - -
04/10:30am - - - - - S 19 20 10 11 - - -
04/10:00am - - - - - S 20 24 11 13 - - -
04/09:30am - - - - - S 19 22 10 12 - - -
04/09:00am - - - - - SSW 19 20 10 11 - - -
04/08:30am - - - - - SW 17 22 9 12 - - -
04/08:00am - - - - - WSW 15 19 8 10 - - -
04/07:30am - - - - - WSW 19 22 10 12 - - -
04/07:00am - - - - - WSW 17 20 9 11 - - -
04/06:30am - - - - - WSW 15 19 8 10 - - -
04/06:00am - - - - - WSW 19 20 10 11 - - -
04/05:30am - - - - - WSW 19 20 10 11 - - -
04/05:00am - - - - - WSW 13 15 7 8 - - -
04/04:30am - - - - - WSW 15 17 8 9 - - -
04/04:00am - - - - - WSW 11 13 6 7 - - -
04/03:30am - - - - - WSW 11 13 6 7 - - -
04/03:00am - - - - - WSW 9 11 5 6 - - -

Other Formats:

Comma delimited format used in spreadsheet applications
http://www.bom.gov.au/fwo/IDQ60801/IDQ60801.94581.axf

JavaScript Object Notation format (JSON) in row-major order
http://www.bom.gov.au/fwo/IDQ60801/IDQ60801.94581.json